createdAt,value
2023-07-27T00:00:18.006Z,78.83
2023-07-27T00:01:21.869Z,78.83
2023-07-27T00:03:30.797Z,78.83
2023-07-27T00:04:34.270Z,78.83
2023-07-27T00:06:42.886Z,78.83
2023-07-27T00:07:46.371Z,78.83
2023-07-27T00:09:55.100Z,78.83
2023-07-27T00:10:58.662Z,78.83
2023-07-27T00:13:06.591Z,78.83
2023-07-27T00:14:09.874Z,78.83
2023-07-27T00:16:18.075Z,78.83
2023-07-27T00:17:22.108Z,78.83
2023-07-27T00:19:30.325Z,78.83
2023-07-27T00:20:33.611Z,78.83
2023-07-27T00:22:41.822Z,78.83
2023-07-27T00:23:45.273Z,78.83
2023-07-27T00:25:53.687Z,78.83
2023-07-27T00:26:57.075Z,78.83
2023-07-27T00:29:05.050Z,78.83
2023-07-27T00:30:08.625Z,78.83
2023-07-27T00:32:17.436Z,78.83
2023-07-27T00:33:20.787Z,78.83
2023-07-27T00:35:29.414Z,78.83
2023-07-27T00:36:33.010Z,78.83
2023-07-27T00:38:41.050Z,78.83
2023-07-27T00:39:44.643Z,78.83
2023-07-27T00:41:53.630Z,78.83
2023-07-27T00:42:56.892Z,78.83
2023-07-27T00:45:04.847Z,78.83
2023-07-27T00:46:08.687Z,78.83
2023-07-27T00:48:18.571Z,78.83
2023-07-27T00:49:22.028Z,78.83
2023-07-27T00:51:30.285Z,78.83
2023-07-27T00:52:33.570Z,78.83
2023-07-27T00:54:41.474Z,78.83
2023-07-27T00:55:44.885Z,78.83
2023-07-27T00:57:53.435Z,78.83
2023-07-27T00:58:56.936Z,78.83
2023-07-27T01:00:18.372Z,78.83
2023-07-27T01:01:21.580Z,78.83
2023-07-27T01:03:30.590Z,78.83
2023-07-27T01:04:34.276Z,78.83
2023-07-27T01:06:43.002Z,78.83
2023-07-27T01:07:46.456Z,78.83
2023-07-27T01:09:54.632Z,78.83
2023-07-27T01:10:59.997Z,78.83
2023-07-27T01:13:08.478Z,78.83
2023-07-27T01:14:11.760Z,78.83
2023-07-27T01:16:19.904Z,78.83
2023-07-27T01:17:24.629Z,78.83
2023-07-27T01:19:32.678Z,78.83
2023-07-27T01:20:36.094Z,78.83
2023-07-27T01:22:44.417Z,78.83
2023-07-27T01:23:47.845Z,78.83
2023-07-27T01:25:56.141Z,78.83
2023-07-27T01:26:59.519Z,78.83
2023-07-27T01:29:07.736Z,78.83
2023-07-27T01:30:11.018Z,78.83
2023-07-27T01:32:19.316Z,76.31
2023-07-27T01:33:23.062Z,76.39
2023-07-27T01:35:31.575Z,76.39
2023-07-27T01:36:35.268Z,76.93
2023-07-27T01:38:43.687Z,77.16
2023-07-27T01:39:47.255Z,77.16
2023-07-27T01:41:55.256Z,77.16
2023-07-27T01:42:58.663Z,77.16
2023-07-27T01:45:06.689Z,77.16
2023-07-27T01:46:11.197Z,77.16
2023-07-27T01:48:20.132Z,77.16
2023-07-27T01:49:23.483Z,77.16
2023-07-27T01:51:32.119Z,77.16
2023-07-27T01:52:35.373Z,77.16
2023-07-27T01:54:43.707Z,77.16
2023-07-27T01:55:47.262Z,77.16
2023-07-27T01:57:55.290Z,77.16
2023-07-27T01:58:59.138Z,77.16
2023-07-27T02:00:18.566Z,77.16
2023-07-27T02:01:22.087Z,77.16
2023-07-27T02:03:30.854Z,77.16
2023-07-27T02:04:35.333Z,77.16
2023-07-27T02:06:44.861Z,77.16
2023-07-27T02:07:48.313Z,83.30
2023-07-27T02:09:56.506Z,83.40
2023-07-27T02:11:00.114Z,83.88
2023-07-27T02:13:08.062Z,84.16
2023-07-27T02:14:11.312Z,84.28
2023-07-27T02:16:20.349Z,84.50
2023-07-27T02:17:24.323Z,84.69
2023-07-27T02:19:32.562Z,84.77
2023-07-27T02:20:35.696Z,84.87
2023-07-27T02:22:44.228Z,85.14
2023-07-27T02:23:47.566Z,85.20
2023-07-27T02:25:55.893Z,85.10
2023-07-27T02:26:59.118Z,85.49
2023-07-27T02:29:07.295Z,85.63
2023-07-27T02:30:10.685Z,85.99
2023-07-27T02:32:19.587Z,85.91
2023-07-27T02:33:23.309Z,86.21
2023-07-27T02:35:31.226Z,86.14
2023-07-27T02:36:35.073Z,86.15
2023-07-27T02:38:43.605Z,86.32
2023-07-27T02:39:47.025Z,86.32
2023-07-27T02:41:55.212Z,86.61
2023-07-27T02:42:58.707Z,86.73
2023-07-27T02:45:07.069Z,86.65
2023-07-27T02:46:10.727Z,87.03
2023-07-27T02:48:19.662Z,86.89
2023-07-27T02:49:23.067Z,86.84
2023-07-27T02:51:31.405Z,86.93
2023-07-27T02:52:34.648Z,87.02
2023-07-27T02:54:42.906Z,87.12
2023-07-27T02:55:46.385Z,87.18
2023-07-27T02:57:54.523Z,87.37
2023-07-27T02:58:57.743Z,87.35
2023-07-27T03:00:17.876Z,87.40
2023-07-27T03:01:21.334Z,87.37
2023-07-27T03:03:30.433Z,87.48
2023-07-27T03:04:34.133Z,87.59
2023-07-27T03:06:42.451Z,87.68
2023-07-27T03:07:46.011Z,87.77
2023-07-27T03:09:54.406Z,87.72
2023-07-27T03:10:58.056Z,87.81
2023-07-27T03:13:06.147Z,87.90
2023-07-27T03:14:09.529Z,87.99
2023-07-27T03:16:17.940Z,88.07
2023-07-27T03:17:21.997Z,88.11
2023-07-27T03:19:29.998Z,88.33
2023-07-27T03:20:33.282Z,88.29
2023-07-27T03:22:41.359Z,88.48
2023-07-27T03:23:44.728Z,88.60
2023-07-27T03:25:53.347Z,88.63
2023-07-27T03:26:56.445Z,88.69
2023-07-27T03:29:04.421Z,88.96
2023-07-27T03:30:07.769Z,88.80
2023-07-27T03:32:16.919Z,89.11
2023-07-27T03:33:20.735Z,89.04
2023-07-27T03:35:28.895Z,89.23
2023-07-27T03:36:33.944Z,89.20
2023-07-27T03:38:42.658Z,89.14
2023-07-27T03:39:46.023Z,89.07
2023-07-27T03:41:54.170Z,89.12
2023-07-27T03:42:57.496Z,89.23
2023-07-27T03:45:05.437Z,89.32
2023-07-27T03:46:08.943Z,89.35
2023-07-27T03:48:18.513Z,89.50
2023-07-27T03:49:22.140Z,89.55
2023-07-27T03:51:30.200Z,89.63
2023-07-27T03:52:33.240Z,89.67
2023-07-27T03:54:41.557Z,89.61
2023-07-27T03:55:44.735Z,89.62
2023-07-27T03:57:52.852Z,89.75
2023-07-27T03:58:56.193Z,89.76
2023-07-27T04:00:18.253Z,89.83
2023-07-27T04:01:21.664Z,89.81
2023-07-27T04:03:30.139Z,89.75
2023-07-27T04:04:33.325Z,89.86
2023-07-27T04:05:48.808Z,89.86
2023-07-27T04:06:52.473Z,90.01
2023-07-27T04:09:01.223Z,89.94
2023-07-27T04:10:04.691Z,89.84
2023-07-27T04:12:13.221Z,90.00
2023-07-27T04:13:16.783Z,90.02
2023-07-27T04:15:25.517Z,90.19
2023-07-27T04:16:28.886Z,90.17
2023-07-27T04:18:39.162Z,90.27
2023-07-27T04:19:42.560Z,90.42
2023-07-27T04:21:51.810Z,90.44
2023-07-27T04:22:54.908Z,90.53
2023-07-27T04:25:03.357Z,90.45
2023-07-27T04:26:06.672Z,90.48
2023-07-27T04:28:14.997Z,90.71
2023-07-27T04:29:18.440Z,90.69
2023-07-27T04:31:26.864Z,90.73
2023-07-27T04:32:31.439Z,90.89
2023-07-27T04:34:39.683Z,90.97
2023-07-27T04:35:43.445Z,91.14
2023-07-27T04:37:51.766Z,91.09
2023-07-27T04:38:55.016Z,91.03
2023-07-27T04:41:03.175Z,91.16
2023-07-27T04:42:06.718Z,91.03
2023-07-27T04:44:14.783Z,91.22
2023-07-27T04:45:18.232Z,91.14
2023-07-27T04:47:27.314Z,91.34
2023-07-27T04:48:31.029Z,91.20
2023-07-27T04:50:39.191Z,91.22
2023-07-27T04:51:43.899Z,91.36
2023-07-27T04:53:52.337Z,91.36
2023-07-27T04:54:55.581Z,91.44
2023-07-27T04:57:03.390Z,91.41
2023-07-27T04:58:07.021Z,91.45
2023-07-27T05:00:20.539Z,91.64
2023-07-27T05:01:24.097Z,91.86
2023-07-27T05:03:32.747Z,91.74
2023-07-27T05:04:36.403Z,91.64
2023-07-27T05:06:44.521Z,91.72
2023-07-27T05:07:47.849Z,91.84
2023-07-27T05:09:59.535Z,91.99
2023-07-27T05:11:02.827Z,92.03
2023-07-27T05:13:11.297Z,92.07
2023-07-27T05:14:14.709Z,92.03
2023-07-27T05:16:22.901Z,91.95
2023-07-27T05:17:27.089Z,91.97
2023-07-27T05:19:35.908Z,92.17
2023-07-27T05:20:39.397Z,92.11
2023-07-27T05:22:47.666Z,92.14
2023-07-27T05:23:50.919Z,92.20
2023-07-27T05:25:59.554Z,92.19
2023-07-27T05:27:02.768Z,92.16
2023-07-27T05:29:11.064Z,92.46
2023-07-27T05:30:14.527Z,92.37
2023-07-27T05:32:23.058Z,92.43
2023-07-27T05:33:26.943Z,92.47
2023-07-27T05:35:36.125Z,92.45
2023-07-27T05:36:39.876Z,92.54
2023-07-27T05:38:48.737Z,92.55
2023-07-27T05:39:52.243Z,92.67
2023-07-27T05:42:00.264Z,92.57
2023-07-27T05:43:03.618Z,92.53
2023-07-27T05:45:11.971Z,92.52
2023-07-27T05:46:15.348Z,92.54
2023-07-27T05:48:24.275Z,92.61
2023-07-27T05:49:27.539Z,92.70
2023-07-27T05:51:35.877Z,92.80
2023-07-27T05:52:39.156Z,92.81
2023-07-27T05:54:47.540Z,92.95
2023-07-27T05:55:50.885Z,92.96
2023-07-27T05:58:22.511Z,92.94
2023-07-27T05:59:28.026Z,93.02
2023-07-27T06:01:22.091Z,92.93
2023-07-27T06:03:34.463Z,93.07
2023-07-27T06:04:58.799Z,93.08
2023-07-27T06:07:06.924Z,93.25
2023-07-27T06:08:10.070Z,93.23
2023-07-27T06:10:18.537Z,93.33
2023-07-27T06:11:22.067Z,93.20
2023-07-27T06:13:30.203Z,93.33
2023-07-27T06:14:33.335Z,93.45
2023-07-27T06:16:42.695Z,93.33
2023-07-27T06:17:46.197Z,93.35
2023-07-27T06:19:55.943Z,93.47
2023-07-27T06:20:59.182Z,93.46
2023-07-27T06:23:07.396Z,93.53
2023-07-27T06:24:10.670Z,93.43
2023-07-27T06:26:18.991Z,93.55
2023-07-27T06:27:22.847Z,93.61
2023-07-27T06:29:31.093Z,93.77
2023-07-27T06:30:34.537Z,93.87
2023-07-27T06:32:43.619Z,93.80
2023-07-27T06:33:48.239Z,93.83
2023-07-27T06:35:56.216Z,93.80
2023-07-27T06:36:59.646Z,93.85
2023-07-27T06:39:07.708Z,93.89
2023-07-27T06:40:11.027Z,93.90
2023-07-27T06:42:19.426Z,93.85
2023-07-27T06:43:23.060Z,93.99
2023-07-27T06:45:31.303Z,93.97
2023-07-27T06:46:35.062Z,94.11
2023-07-27T06:48:45.940Z,94.02
2023-07-27T06:49:49.026Z,94.02
2023-07-27T06:51:57.259Z,94.15
2023-07-27T06:53:00.742Z,94.21
2023-07-27T06:55:09.387Z,94.14
2023-07-27T06:56:12.793Z,94.21
2023-07-27T06:58:21.340Z,94.12
2023-07-27T06:59:24.739Z,94.21
2023-07-27T07:01:22.000Z,94.26
2023-07-27T07:03:31.509Z,94.39
2023-07-27T07:04:36.642Z,94.46
2023-07-27T07:06:46.666Z,94.44
2023-07-27T07:07:50.025Z,94.45
2023-07-27T07:09:58.447Z,94.37
2023-07-27T07:11:02.017Z,94.42
2023-07-27T07:13:10.206Z,94.50
2023-07-27T07:14:13.410Z,94.58
2023-07-27T07:16:22.017Z,94.65
2023-07-27T07:17:26.177Z,94.70
2023-07-27T07:19:34.502Z,94.73
2023-07-27T07:20:37.826Z,94.65
2023-07-27T07:22:50.494Z,94.73
2023-07-27T07:23:53.761Z,94.81
2023-07-27T07:26:02.005Z,94.84
2023-07-27T07:27:05.465Z,94.86
2023-07-27T07:29:13.696Z,94.88
2023-07-27T07:30:17.122Z,94.86
2023-07-27T07:32:25.707Z,95.07
2023-07-27T07:33:29.602Z,95.06
2023-07-27T07:35:37.825Z,94.98
2023-07-27T07:36:41.586Z,94.96
2023-07-27T07:38:50.061Z,94.92
2023-07-27T07:39:53.304Z,95.00
2023-07-27T07:42:01.539Z,94.96
2023-07-27T07:43:05.064Z,94.99
2023-07-27T07:45:13.106Z,94.93
2023-07-27T07:46:16.515Z,94.91
2023-07-27T07:48:26.683Z,94.97
2023-07-27T07:49:30.419Z,95.03
2023-07-27T07:51:38.397Z,95.07
2023-07-27T07:52:41.760Z,95.07
2023-07-27T07:54:59.342Z,95.02
2023-07-27T07:56:02.647Z,95.04
2023-07-27T07:58:11.299Z,94.95
2023-07-27T07:59:14.906Z,94.88
2023-07-27T08:00:20.436Z,94.87
2023-07-27T08:01:23.709Z,94.85
2023-07-27T08:03:32.745Z,94.84
2023-07-27T08:04:36.605Z,94.88
2023-07-27T08:06:46.601Z,94.87
2023-07-27T08:07:50.272Z,94.90
2023-07-27T08:09:59.019Z,94.97
2023-07-27T08:11:02.391Z,94.94
2023-07-27T08:13:10.849Z,95.03
2023-07-27T08:14:14.213Z,94.91
2023-07-27T08:16:22.800Z,94.86
2023-07-27T08:17:27.331Z,94.94
2023-07-27T08:19:36.119Z,95.12
2023-07-27T08:20:39.710Z,95.08
2023-07-27T08:22:48.590Z,95.10
2023-07-27T08:23:51.831Z,95.03
2023-07-27T08:26:20.548Z,95.04
2023-07-27T08:27:24.473Z,95.14
2023-07-27T08:29:34.209Z,95.14
2023-07-27T08:30:38.767Z,95.09
2023-07-27T08:32:47.818Z,95.10
2023-07-27T08:33:51.815Z,95.01
2023-07-27T08:36:02.425Z,95.14
2023-07-27T08:37:06.427Z,95.17
2023-07-27T08:39:14.879Z,95.27
2023-07-27T08:40:17.989Z,95.22
2023-07-27T08:42:27.662Z,95.14
2023-07-27T08:43:32.714Z,95.24
2023-07-27T08:45:41.155Z,95.20
2023-07-27T08:46:44.896Z,95.22
2023-07-27T08:48:53.877Z,95.24
2023-07-27T08:49:57.314Z,95.22
2023-07-27T08:52:06.179Z,95.33
2023-07-27T08:53:09.904Z,95.30
2023-07-27T08:55:18.700Z,95.26
2023-07-27T08:56:21.851Z,95.27
2023-07-27T08:58:30.511Z,95.40
2023-07-27T08:59:33.980Z,95.35
2023-07-27T09:01:21.562Z,95.32
2023-07-27T09:03:31.177Z,95.43
2023-07-27T09:04:34.852Z,95.39
2023-07-27T09:06:43.918Z,95.47
2023-07-27T09:07:47.330Z,95.56
2023-07-27T09:09:55.703Z,95.72
2023-07-27T09:10:59.040Z,95.66
2023-07-27T09:13:07.094Z,95.69
2023-07-27T09:14:10.481Z,95.67
2023-07-27T09:16:18.940Z,95.54
2023-07-27T09:17:22.903Z,95.54
2023-07-27T09:19:31.970Z,95.71
2023-07-27T09:20:35.347Z,95.66
2023-07-27T09:22:44.284Z,95.82
2023-07-27T09:23:47.932Z,95.64
2023-07-27T09:25:56.303Z,95.55
2023-07-27T09:26:59.928Z,95.61
2023-07-27T09:29:08.284Z,95.65
2023-07-27T09:30:11.694Z,95.69
2023-07-27T09:32:20.579Z,95.63
2023-07-27T09:33:24.560Z,95.60
2023-07-27T09:35:32.852Z,95.51
2023-07-27T09:36:36.469Z,95.54
2023-07-27T09:38:44.836Z,95.51
2023-07-27T09:39:48.917Z,95.51
2023-07-27T09:41:57.046Z,95.45
2023-07-27T09:43:01.068Z,95.46
2023-07-27T09:45:09.402Z,95.32
2023-07-27T09:46:13.110Z,95.22
2023-07-27T09:48:23.203Z,95.12
2023-07-27T09:49:29.165Z,95.04
2023-07-27T09:51:37.610Z,94.77
2023-07-27T09:52:40.965Z,94.92
2023-07-27T09:54:49.562Z,95.04
2023-07-27T09:55:53.316Z,95.05
2023-07-27T09:58:01.858Z,95.11
2023-07-27T09:59:05.308Z,95.18
2023-07-27T10:00:18.548Z,95.15
2023-07-27T10:01:21.895Z,95.15
2023-07-27T10:03:55.888Z,95.23
2023-07-27T10:04:59.202Z,95.19
2023-07-27T10:07:08.828Z,95.30
2023-07-27T10:08:32.661Z,95.20
2023-07-27T10:10:41.291Z,95.25
2023-07-27T10:11:44.416Z,95.22
2023-07-27T10:13:52.299Z,95.18
2023-07-27T10:14:55.928Z,95.24
2023-07-27T10:17:06.352Z,95.10
2023-07-27T10:18:09.862Z,95.10
2023-07-27T10:20:18.367Z,95.15
2023-07-27T10:21:21.714Z,95.15
2023-07-27T10:23:30.062Z,95.11
2023-07-27T10:24:33.254Z,95.10
2023-07-27T10:26:41.704Z,94.82
2023-07-27T10:27:45.739Z,94.83
2023-07-27T10:29:54.119Z,94.81
2023-07-27T10:30:57.643Z,94.77
2023-07-27T10:33:06.487Z,94.89
2023-07-27T10:34:35.120Z,94.81
2023-07-27T10:36:46.479Z,94.56
2023-07-27T10:37:49.800Z,94.60
2023-07-27T10:39:58.008Z,94.51
2023-07-27T10:41:01.982Z,94.51
2023-07-27T10:43:11.183Z,94.42
2023-07-27T10:44:29.014Z,94.30
2023-07-27T10:46:42.717Z,94.51
2023-07-27T10:47:46.713Z,94.47
2023-07-27T10:49:55.206Z,94.49
2023-07-27T10:50:59.118Z,94.45
2023-07-27T10:53:08.581Z,94.58
2023-07-27T10:54:11.715Z,94.70
2023-07-27T10:56:22.617Z,94.77
2023-07-27T10:57:28.684Z,94.74
2023-07-27T10:59:37.218Z,94.92
2023-07-27T11:01:20.911Z,94.97
2023-07-27T11:03:31.530Z,94.95
2023-07-27T11:04:37.554Z,94.96
2023-07-27T11:06:46.379Z,95.21
2023-07-27T11:07:50.323Z,95.27
2023-07-27T11:09:59.058Z,95.31
2023-07-27T11:11:02.477Z,95.34
2023-07-27T11:13:10.790Z,95.43
2023-07-27T11:14:14.242Z,95.36
2023-07-27T11:16:23.706Z,95.13
2023-07-27T11:17:27.823Z,95.06
2023-07-27T11:19:36.780Z,95.09
2023-07-27T11:20:40.464Z,95.03
2023-07-27T11:22:48.859Z,94.99
2023-07-27T11:23:52.374Z,95.02
2023-07-27T11:26:00.574Z,95.09
2023-07-27T11:27:04.074Z,95.18
2023-07-27T11:29:14.653Z,95.05
2023-07-27T11:30:18.391Z,95.05
2023-07-27T11:32:27.016Z,95.16
2023-07-27T11:33:30.687Z,95.10
2023-07-27T11:35:38.829Z,95.08
2023-07-27T11:36:43.061Z,95.06
2023-07-27T11:38:52.310Z,95.05
2023-07-27T11:39:55.919Z,95.02
2023-07-27T11:42:55.012Z,95.22
2023-07-27T11:43:58.616Z,95.29
2023-07-27T11:46:08.484Z,95.30
2023-07-27T11:47:14.129Z,95.66
2023-07-27T11:49:24.546Z,95.63
2023-07-27T11:50:28.297Z,95.54
2023-07-27T11:52:37.000Z,95.40
2023-07-27T11:53:45.349Z,95.46
2023-07-27T11:55:53.814Z,95.33
2023-07-27T11:56:57.543Z,95.34
2023-07-27T11:59:07.513Z,95.03
2023-07-27T12:00:18.323Z,95.05
2023-07-27T12:01:21.839Z,94.86
2023-07-27T12:03:35.869Z,94.70
2023-07-27T12:04:43.646Z,94.82
2023-07-27T12:06:52.073Z,94.94
2023-07-27T12:11:50.415Z,94.61
2023-07-27T12:13:25.455Z,94.62
2023-07-27T12:16:18.528Z,94.55
2023-07-27T12:17:36.908Z,94.02
2023-07-27T12:24:54.031Z,94.34
2023-07-27T12:28:47.813Z,94.36
2023-07-27T12:32:59.277Z,94.49
2023-07-27T12:34:04.061Z,94.06
2023-07-27T12:41:36.212Z,94.73
2023-07-27T12:43:20.634Z,94.50
2023-07-27T12:45:28.709Z,94.49
2023-07-27T12:46:32.860Z,94.45
2023-07-27T12:48:42.462Z,94.34
2023-07-27T12:49:46.662Z,94.28
2023-07-27T12:51:55.151Z,94.03
2023-07-27T12:52:58.674Z,94.06
2023-07-27T12:55:07.599Z,94.02
2023-07-27T12:56:11.113Z,93.94
2023-07-27T12:58:19.874Z,94.05
2023-07-27T12:59:23.395Z,94.13
2023-07-27T13:00:18.798Z,94.02
2023-07-27T13:01:22.163Z,93.97
2023-07-27T13:03:32.250Z,93.94
2023-07-27T13:04:36.421Z,93.97
2023-07-27T13:06:45.006Z,94.01
2023-07-27T13:07:48.321Z,93.98
2023-07-27T13:09:57.174Z,93.95
2023-07-27T13:11:00.949Z,93.94
2023-07-27T13:13:09.920Z,94.25
2023-07-27T13:14:13.504Z,94.36
2023-07-27T13:16:22.052Z,94.35
2023-07-27T13:17:25.840Z,94.34
2023-07-27T13:19:37.596Z,94.39
2023-07-27T13:20:41.070Z,94.51
2023-07-27T13:22:49.460Z,94.50
2023-07-27T13:23:52.934Z,94.60
2023-07-27T13:26:01.768Z,94.81
2023-07-27T13:27:05.463Z,94.74
2023-07-27T13:29:14.574Z,95.06
2023-07-27T13:30:17.930Z,95.32
2023-07-27T13:32:29.321Z,95.28
2023-07-27T13:33:33.150Z,95.39
2023-07-27T13:35:45.669Z,95.10
2023-07-27T13:36:49.177Z,95.06
2023-07-27T13:38:58.046Z,95.44
2023-07-27T13:40:01.581Z,95.27
2023-07-27T13:42:10.072Z,95.22
2023-07-27T13:43:15.817Z,95.18
2023-07-27T13:45:24.867Z,95.21
2023-07-27T13:46:28.441Z,95.32
2023-07-27T13:49:04.720Z,94.88
2023-07-27T13:50:08.799Z,94.99
2023-07-27T13:52:18.941Z,95.02
2023-07-27T13:53:22.615Z,95.10
2023-07-27T13:55:31.063Z,94.64
2023-07-27T13:56:35.732Z,94.57
2023-07-27T13:58:43.983Z,94.51
2023-07-27T13:59:47.426Z,94.56
2023-07-27T14:00:20.487Z,94.34
2023-07-27T14:01:24.101Z,94.28
2023-07-27T14:03:34.992Z,93.59
2023-07-27T14:04:38.761Z,93.66
2023-07-27T14:06:47.332Z,93.80
2023-07-27T14:07:51.116Z,93.84
2023-07-27T14:10:00.668Z,93.89
2023-07-27T14:11:04.188Z,93.76
2023-07-27T14:13:15.329Z,93.77
2023-07-27T14:14:19.032Z,93.87
2023-07-27T14:16:27.803Z,93.95
2023-07-27T14:17:31.304Z,93.96
2023-07-27T14:19:40.939Z,93.97
2023-07-27T14:20:44.750Z,93.99
2023-07-27T14:22:53.183Z,93.96
2023-07-27T14:23:56.861Z,93.95
2023-07-27T14:26:06.578Z,93.94
2023-07-27T14:27:17.449Z,93.97
2023-07-27T14:29:51.079Z,94.15
2023-07-27T14:31:17.617Z,94.12
2023-07-27T14:33:26.571Z,94.13
2023-07-27T14:34:30.267Z,94.38
2023-07-27T14:36:39.654Z,94.39
2023-07-27T14:37:45.089Z,94.40
2023-07-27T14:40:44.337Z,94.55
2023-07-27T14:41:51.829Z,94.69
2023-07-27T14:44:00.541Z,94.84
2023-07-27T14:45:04.191Z,94.94
2023-07-27T14:47:13.390Z,95.08
2023-07-27T14:48:17.233Z,95.02
2023-07-27T14:51:20.456Z,95.14
2023-07-27T14:52:24.701Z,95.14
2023-07-27T14:54:37.266Z,94.67
2023-07-27T14:55:40.666Z,94.60
2023-07-27T14:58:05.074Z,94.59
2023-07-27T15:05:35.154Z,94.68
2023-07-27T15:06:40.121Z,94.80
2023-07-27T15:08:49.108Z,94.95
2023-07-27T15:09:52.825Z,94.84
2023-07-27T15:12:36.988Z,94.74
2023-07-27T15:13:40.630Z,94.48
2023-07-27T15:15:48.930Z,94.48
2023-07-27T15:16:52.455Z,94.45
2023-07-27T15:19:01.956Z,94.73
2023-07-27T15:20:05.731Z,94.67
2023-07-27T15:22:14.310Z,94.44
2023-07-27T15:23:17.846Z,94.44
2023-07-27T15:25:26.284Z,94.25
2023-07-27T15:26:29.884Z,94.29
2023-07-27T15:28:38.998Z,94.16
2023-07-27T15:29:42.636Z,94.05
2023-07-27T15:31:51.586Z,94.27
2023-07-27T15:32:57.264Z,94.38
2023-07-27T15:35:06.260Z,94.37
2023-07-27T15:36:09.807Z,94.42
2023-07-27T15:38:18.731Z,94.38
2023-07-27T15:39:25.733Z,94.45
2023-07-27T15:41:34.075Z,94.69
2023-07-27T15:42:37.562Z,94.90
2023-07-27T15:44:45.782Z,94.90
2023-07-27T15:45:49.239Z,94.74
2023-07-27T15:47:58.161Z,94.66
2023-07-27T15:49:01.512Z,94.57
2023-07-27T15:51:09.817Z,94.40
2023-07-27T15:52:13.794Z,94.14
2023-07-27T15:54:22.426Z,93.97
2023-07-27T15:55:26.045Z,94.00
2023-07-27T15:57:41.864Z,93.98
2023-07-27T15:58:45.256Z,93.85
2023-07-27T16:00:18.694Z,93.91
2023-07-27T16:01:22.270Z,93.96
2023-07-27T16:03:31.987Z,94.21
2023-07-27T16:04:36.210Z,94.38
2023-07-27T16:05:48.547Z,94.38
2023-07-27T16:06:52.321Z,94.35
2023-07-27T16:09:01.227Z,94.33
2023-07-27T16:10:04.979Z,94.43
2023-07-27T16:12:13.695Z,94.49
2023-07-27T16:13:20.492Z,94.62
2023-07-27T16:15:29.808Z,94.48
2023-07-27T16:16:33.802Z,94.59
2023-07-27T16:18:44.893Z,94.46
2023-07-27T16:19:48.700Z,94.44
2023-07-27T16:21:57.351Z,94.56
2023-07-27T16:23:00.984Z,94.56
2023-07-27T16:25:09.858Z,94.59
2023-07-27T16:26:13.539Z,94.50
2023-07-27T16:28:23.178Z,94.38
2023-07-27T16:29:26.980Z,94.43
2023-07-27T16:31:39.744Z,94.58
2023-07-27T16:32:43.494Z,94.50
2023-07-27T16:34:52.813Z,94.43
2023-07-27T16:35:56.509Z,94.43
2023-07-27T16:38:08.278Z,94.34
2023-07-27T16:39:12.004Z,94.41
2023-07-27T16:41:20.783Z,94.16
2023-07-27T16:42:24.383Z,94.11
2023-07-27T16:44:33.268Z,93.83
2023-07-27T16:45:37.178Z,93.95
2023-07-27T16:47:46.874Z,93.92
2023-07-27T16:48:50.648Z,93.98
2023-07-27T16:50:59.493Z,93.92
2023-07-27T16:52:03.165Z,93.95
2023-07-27T16:54:12.006Z,94.00
2023-07-27T16:55:15.767Z,93.90
2023-07-27T16:57:25.197Z,93.85
2023-07-27T16:58:28.789Z,93.86
2023-07-27T17:01:22.361Z,93.78
2023-07-27T17:03:32.058Z,93.73
2023-07-27T17:04:36.239Z,93.74
2023-07-27T17:06:47.076Z,93.67
2023-07-27T17:07:50.754Z,93.62
2023-07-27T17:09:59.420Z,93.71
2023-07-27T17:11:02.909Z,93.81
2023-07-27T17:13:14.596Z,93.67
2023-07-27T17:14:18.372Z,93.51
2023-07-27T17:16:27.118Z,93.38
2023-07-27T17:17:35.769Z,93.72
2023-07-27T17:19:44.953Z,93.81
2023-07-27T17:20:48.828Z,93.47
2023-07-27T17:23:00.514Z,93.52
2023-07-27T17:24:04.189Z,93.61
2023-07-27T17:26:13.130Z,93.71
2023-07-27T17:27:17.288Z,93.92
2023-07-27T17:29:26.780Z,93.81
2023-07-27T17:30:30.496Z,93.91
2023-07-27T17:32:39.437Z,93.97
2023-07-27T17:33:43.400Z,93.92
2023-07-27T17:35:52.323Z,93.86
2023-07-27T17:36:55.828Z,93.94
2023-07-27T17:39:05.838Z,93.96
2023-07-27T17:40:11.083Z,93.94
2023-07-27T17:42:21.036Z,94.03
2023-07-27T17:43:24.725Z,94.13
2023-07-27T17:45:33.456Z,94.19
2023-07-27T17:46:37.627Z,94.15
2023-07-27T17:48:46.663Z,94.19
2023-07-27T17:49:50.154Z,94.20
2023-07-27T17:52:02.730Z,94.36
2023-07-27T17:53:06.442Z,94.28
2023-07-27T17:55:15.090Z,94.13
2023-07-27T17:56:21.302Z,94.22
2023-07-27T17:58:30.242Z,94.26
2023-07-27T17:59:33.873Z,94.31
2023-07-27T18:01:21.567Z,94.23
2023-07-27T18:03:32.400Z,94.43
2023-07-27T18:04:37.491Z,94.38
2023-07-27T18:06:46.098Z,94.34
2023-07-27T18:07:49.453Z,94.39
2023-07-27T18:10:00.813Z,94.36
2023-07-27T18:11:04.317Z,94.46
2023-07-27T18:13:13.071Z,94.59
2023-07-27T18:14:16.445Z,94.59
2023-07-27T18:16:25.500Z,94.50
2023-07-27T18:17:31.616Z,94.55
2023-07-27T18:19:41.726Z,94.50
2023-07-27T18:20:45.218Z,94.52
2023-07-27T18:22:54.183Z,94.59
2023-07-27T18:23:57.672Z,94.56
2023-07-27T18:26:26.410Z,94.56
2023-07-27T18:27:30.006Z,94.63
2023-07-27T18:29:38.892Z,94.51
2023-07-27T18:30:42.248Z,94.62
2023-07-27T18:32:51.413Z,94.61
2023-07-27T18:33:55.068Z,94.63
2023-07-27T18:36:03.605Z,94.62
2023-07-27T18:37:09.238Z,94.73
2023-07-27T18:39:18.266Z,94.71
2023-07-27T18:40:22.013Z,94.69
2023-07-27T18:42:31.177Z,94.64
2023-07-27T18:43:34.752Z,94.64
2023-07-27T18:45:43.623Z,94.63
2023-07-27T18:46:47.346Z,94.61
2023-07-27T18:48:57.502Z,94.57
2023-07-27T18:50:03.146Z,94.52
2023-07-27T18:52:12.084Z,94.56
2023-07-27T18:53:15.726Z,94.62
2023-07-27T18:55:24.741Z,94.68
2023-07-27T18:56:28.576Z,94.61
2023-07-27T18:58:37.988Z,94.63
2023-07-27T18:59:41.725Z,94.63
2023-07-27T19:01:21.994Z,94.68
2023-07-27T19:03:31.734Z,94.67
2023-07-27T19:04:35.808Z,94.60
2023-07-27T19:06:44.675Z,94.58
2023-07-27T19:07:48.020Z,94.59
2023-07-27T19:09:56.833Z,94.65
2023-07-27T19:11:00.693Z,94.63
2023-07-27T19:13:08.680Z,94.58
2023-07-27T19:14:12.391Z,94.59
2023-07-27T19:16:23.195Z,94.60
2023-07-27T19:17:26.828Z,94.60
2023-07-27T19:19:36.081Z,94.63
2023-07-27T19:20:39.643Z,94.57
2023-07-27T19:22:49.192Z,94.62
2023-07-27T19:23:52.543Z,94.63
2023-07-27T19:26:04.460Z,94.57
2023-07-27T19:27:08.614Z,94.61
2023-07-27T19:29:17.462Z,94.65
2023-07-27T19:30:21.074Z,94.65
2023-07-27T19:32:30.459Z,94.67
2023-07-27T19:33:34.541Z,94.67
2023-07-27T19:35:43.180Z,94.67
2023-07-27T19:36:46.507Z,94.69
2023-07-27T19:38:55.656Z,94.63
2023-07-27T19:39:59.790Z,94.54
2023-07-27T19:42:08.591Z,94.65
2023-07-27T19:43:12.293Z,94.58
2023-07-27T19:45:22.465Z,94.73
2023-07-27T19:46:26.241Z,94.70
2023-07-27T19:48:39.436Z,94.70
2023-07-27T19:50:03.866Z,94.70
2023-07-27T19:52:13.087Z,94.73
2023-07-27T19:53:16.710Z,94.79
2023-07-27T19:55:25.435Z,94.78
2023-07-27T19:56:28.752Z,94.82
2023-07-27T19:58:37.674Z,94.83
2023-07-27T19:59:41.302Z,94.82
2023-07-27T20:01:23.887Z,94.84
2023-07-27T20:03:33.192Z,94.81
2023-07-27T20:04:36.947Z,94.81
2023-07-27T20:06:45.948Z,94.79
2023-07-27T20:07:49.666Z,94.76
2023-07-27T20:09:59.216Z,94.82
2023-07-27T20:11:02.837Z,94.77
2023-07-27T20:13:11.621Z,94.84
2023-07-27T20:14:38.992Z,94.72
2023-07-27T20:16:48.132Z,94.80
2023-07-27T20:17:54.505Z,94.83
2023-07-27T20:20:03.317Z,94.91
2023-07-27T20:21:07.016Z,94.94
2023-07-27T20:23:15.913Z,94.91
2023-07-27T20:24:19.563Z,94.91
2023-07-27T20:26:29.800Z,94.95
2023-07-27T20:27:33.938Z,95.02
2023-07-27T20:29:42.368Z,94.92
2023-07-27T20:30:45.818Z,94.97
2023-07-27T20:32:54.682Z,94.99
2023-07-27T20:33:58.206Z,94.94
2023-07-27T20:36:06.999Z,94.88
2023-07-27T20:37:10.567Z,95.00
2023-07-27T20:39:19.310Z,95.05
2023-07-27T20:40:22.962Z,94.94
2023-07-27T20:42:31.924Z,95.01
2023-07-27T20:43:35.432Z,94.94
2023-07-27T20:45:44.189Z,94.97
2023-07-27T20:46:47.829Z,94.89
2023-07-27T20:48:56.869Z,94.96
2023-07-27T20:50:00.255Z,94.98
2023-07-27T20:52:08.959Z,94.96
2023-07-27T20:53:12.535Z,94.96
2023-07-27T20:55:21.336Z,94.95
2023-07-27T20:56:24.796Z,94.98
2023-07-27T20:58:34.104Z,94.98
2023-07-27T20:59:37.887Z,94.91
2023-07-27T21:01:21.651Z,94.94
2023-07-27T21:03:30.786Z,94.91
2023-07-27T21:04:34.423Z,94.94
2023-07-27T21:06:43.179Z,94.96
2023-07-27T21:07:46.805Z,94.93